createdAt,value
2023-05-23T00:00:07.674Z,77.0289
2023-05-23T00:01:15.562Z,77.0228
2023-05-23T00:02:23.694Z,77.0568
2023-05-23T00:03:31.715Z,77.0814
2023-05-23T00:04:39.889Z,76.5908
2023-05-23T00:05:47.911Z,76.5078
2023-05-23T00:06:56.075Z,76.2827
2023-05-23T00:08:03.752Z,76.0750
2023-05-23T00:09:11.996Z,76.1390
2023-05-23T00:10:19.874Z,76.5632
2023-05-23T00:11:28.308Z,76.1268
2023-05-23T00:12:36.148Z,75.7167
2023-05-23T00:13:44.212Z,75.4965
2023-05-23T00:14:52.235Z,76.9673
2023-05-23T00:16:00.478Z,76.5296
2023-05-23T00:17:08.504Z,75.3493
2023-05-23T00:18:16.465Z,75.3320
2023-05-23T00:19:24.414Z,75.4182
2023-05-23T00:20:32.550Z,75.1454
2023-05-23T00:21:40.714Z,75.3568
2023-05-23T00:22:48.729Z,75.3905
2023-05-23T00:23:56.741Z,75.3913
2023-05-23T00:25:04.920Z,75.6324
2023-05-23T00:26:12.888Z,76.2269
2023-05-23T00:27:20.909Z,77.1393
2023-05-23T00:28:29.020Z,78.2121
2023-05-23T00:29:37.109Z,79.0574
2023-05-23T00:30:45.065Z,79.4131
2023-05-23T00:31:53.311Z,78.9064
2023-05-23T00:33:01.506Z,78.2083
2023-05-23T00:34:09.249Z,77.7891
2023-05-23T00:35:17.398Z,77.9609
2023-05-23T00:36:25.392Z,78.7077
2023-05-23T00:37:33.610Z,78.9977
2023-05-23T00:38:41.731Z,79.0245
2023-05-23T00:39:49.675Z,79.7118
2023-05-23T00:40:57.735Z,80.7704
2023-05-23T00:42:05.727Z,81.7224
2023-05-23T00:43:14.003Z,82.2733
2023-05-23T00:44:22.560Z,82.5057
2023-05-23T00:45:29.993Z,82.3567
2023-05-23T00:46:38.339Z,82.6646
2023-05-23T00:47:46.151Z,83.1460
2023-05-23T00:48:54.192Z,82.7662
2023-05-23T00:50:02.241Z,83.0449
2023-05-23T00:51:10.445Z,83.3804
2023-05-23T00:52:18.410Z,83.5845
2023-05-23T00:53:26.674Z,83.7353
2023-05-23T00:54:34.460Z,83.7216
2023-05-23T00:55:42.689Z,83.6153
2023-05-23T00:56:50.641Z,83.4718
2023-05-23T00:57:58.692Z,83.6678
2023-05-23T00:59:06.623Z,83.7555
2023-05-23T01:00:14.775Z,83.5139
2023-05-23T01:01:23.044Z,83.1577
2023-05-23T01:02:30.977Z,83.1469
2023-05-23T01:03:39.153Z,83.1199
2023-05-23T01:04:46.882Z,83.4617
2023-05-23T01:05:55.187Z,83.5778
2023-05-23T01:07:03.216Z,83.3516
2023-05-23T01:08:11.243Z,83.0151
2023-05-23T01:09:19.300Z,83.4343
2023-05-23T01:10:27.451Z,83.1900
2023-05-23T01:11:35.438Z,83.1819
2023-05-23T01:12:43.486Z,83.7279
2023-05-23T01:13:51.503Z,84.0012
2023-05-23T01:14:59.567Z,84.0442
2023-05-23T01:16:07.655Z,84.0837
2023-05-23T01:17:15.649Z,84.2001
2023-05-23T01:18:23.766Z,84.1624
2023-05-23T01:19:31.683Z,84.1910
2023-05-23T01:20:39.855Z,84.5989
2023-05-23T01:21:47.936Z,84.9207
2023-05-23T01:22:55.895Z,85.3181
2023-05-23T01:24:04.051Z,85.3173
2023-05-23T01:25:12.057Z,85.2934
2023-05-23T01:26:20.323Z,85.3039
2023-05-23T01:27:28.222Z,85.2732
2023-05-23T01:28:36.362Z,85.5396
2023-05-23T01:29:44.391Z,85.8069
2023-05-23T01:30:52.442Z,85.9659
2023-05-23T01:32:00.497Z,86.2243
2023-05-23T01:33:08.592Z,86.3900
2023-05-23T01:34:16.478Z,86.5037
2023-05-23T01:35:24.688Z,86.5565
2023-05-23T01:36:32.715Z,86.3363
2023-05-23T01:37:40.761Z,85.9688
2023-05-23T01:38:49.036Z,85.8942
2023-05-23T01:39:56.774Z,86.1762
2023-05-23T01:41:05.046Z,85.7292
2023-05-23T01:42:13.072Z,85.1439
2023-05-23T01:43:21.051Z,85.6096
2023-05-23T01:44:29.268Z,85.6005
2023-05-23T01:45:37.207Z,85.6261
2023-05-23T01:46:45.240Z,85.8985
2023-05-23T01:47:53.379Z,86.3826
2023-05-23T01:49:01.522Z,86.5421
2023-05-23T01:50:09.392Z,86.5560
2023-05-23T01:51:17.354Z,86.7333
2023-05-23T01:52:25.534Z,86.9319
2023-05-23T01:53:33.603Z,87.1080
2023-05-23T01:54:41.941Z,87.1388
2023-05-23T01:55:49.724Z,87.1063
2023-05-23T01:56:57.699Z,87.2861
2023-05-23T01:58:05.798Z,87.3299
2023-05-23T01:59:13.864Z,87.4220
2023-05-23T02:00:22.005Z,87.6204
2023-05-23T02:01:30.048Z,87.7950
2023-05-23T02:02:38.230Z,87.8392
2023-05-23T02:03:46.136Z,87.8183
2023-05-23T02:04:54.248Z,87.8384
2023-05-23T02:06:02.310Z,87.9195
2023-05-23T02:07:10.287Z,88.1031
2023-05-23T02:08:18.355Z,88.3256
2023-05-23T02:09:26.523Z,88.4291
2023-05-23T02:10:34.571Z,88.4247
2023-05-23T02:11:42.546Z,88.4406
2023-05-23T02:12:50.714Z,88.3469
2023-05-23T02:13:58.654Z,88.4768
2023-05-23T02:15:06.712Z,88.0238
2023-05-23T02:16:14.969Z,87.2268
2023-05-23T02:17:22.897Z,86.7910
2023-05-23T02:18:30.915Z,86.7392
2023-05-23T02:19:38.906Z,86.9058
2023-05-23T02:20:47.030Z,87.0103
2023-05-23T02:21:55.136Z,87.1579
2023-05-23T02:23:03.157Z,87.2384
2023-05-23T02:24:11.453Z,87.2400
2023-05-23T02:25:19.326Z,87.3110
2023-05-23T02:26:27.367Z,87.4384
2023-05-23T02:27:35.419Z,87.8533
2023-05-23T02:28:43.391Z,88.1061
2023-05-23T02:29:51.506Z,87.9056
2023-05-23T02:30:59.806Z,87.6630
2023-05-23T02:32:07.663Z,87.5377
2023-05-23T02:33:15.764Z,87.4596
2023-05-23T02:34:23.889Z,87.0025
2023-05-23T02:35:31.822Z,86.3112
2023-05-23T02:36:39.925Z,85.7853
2023-05-23T02:37:47.921Z,85.6221
2023-05-23T02:38:56.211Z,85.5795
2023-05-23T02:40:03.924Z,85.6549
2023-05-23T02:41:12.187Z,86.1701
2023-05-23T02:42:20.208Z,86.4308
2023-05-23T02:43:28.091Z,86.5732
2023-05-23T02:44:36.372Z,86.5410
2023-05-23T02:45:44.389Z,85.9826
2023-05-23T02:46:52.629Z,85.4239
2023-05-23T02:48:00.458Z,85.5893
2023-05-23T02:49:08.546Z,85.9512
2023-05-23T02:50:16.552Z,86.3116
2023-05-23T02:51:24.531Z,86.8502
2023-05-23T02:52:32.722Z,87.2452
2023-05-23T02:53:40.902Z,87.3621
2023-05-23T02:54:48.664Z,87.5486
2023-05-23T02:55:56.867Z,87.7283
2023-05-23T02:57:04.969Z,87.8228
2023-05-23T02:58:12.969Z,88.0686
2023-05-23T02:59:21.050Z,88.3842
2023-05-23T03:00:29.155Z,88.3040
2023-05-23T03:01:37.138Z,88.0551
2023-05-23T03:02:45.472Z,88.2001
2023-05-23T03:03:53.256Z,88.2714
2023-05-23T03:05:01.308Z,88.3183
2023-05-23T03:06:09.256Z,88.0867
2023-05-23T03:07:27.486Z,88.0131
2023-05-23T03:08:30.351Z,88.0615
2023-05-23T03:09:38.394Z,88.3129
2023-05-23T03:10:46.464Z,88.5065
2023-05-23T03:11:54.643Z,88.5189
2023-05-23T03:13:02.635Z,88.2172
2023-05-23T03:14:10.634Z,88.1309
2023-05-23T03:15:18.712Z,88.2718
2023-05-23T03:16:26.862Z,88.4170
2023-05-23T03:17:34.697Z,88.5351
2023-05-23T03:18:42.925Z,88.7451
2023-05-23T03:19:50.955Z,88.8818
2023-05-23T03:20:59.009Z,88.8927
2023-05-23T03:22:07.207Z,88.8949
2023-05-23T03:23:15.146Z,88.9029
2023-05-23T03:24:23.185Z,88.9938
2023-05-23T03:25:31.263Z,88.9317
2023-05-23T03:26:39.285Z,88.7703
2023-05-23T03:27:47.321Z,87.4426
2023-05-23T03:28:55.463Z,86.9731
2023-05-23T03:30:03.704Z,86.7760
2023-05-23T03:31:11.601Z,86.7986
2023-05-23T03:32:19.660Z,87.0065
2023-05-23T03:33:27.631Z,86.5800
2023-05-23T03:34:35.714Z,86.2862
2023-05-23T03:35:43.734Z,86.1241
2023-05-23T03:36:51.808Z,86.5760
2023-05-23T03:37:59.701Z,86.7301
2023-05-23T03:39:07.968Z,87.0259
2023-05-23T03:40:16.019Z,86.8869
2023-05-23T03:41:24.022Z,86.8432
2023-05-23T03:42:32.159Z,86.8140
2023-05-23T03:43:40.023Z,86.8300
2023-05-23T03:44:48.447Z,86.9439
2023-05-23T03:45:56.369Z,86.8024
2023-05-23T03:47:04.366Z,86.4915
2023-05-23T03:48:12.474Z,86.4748
2023-05-23T03:49:20.289Z,85.4164
2023-05-23T03:50:28.731Z,84.9309
2023-05-23T03:51:36.551Z,85.0337
2023-05-23T03:52:44.491Z,84.9805
2023-05-23T03:53:52.684Z,84.9854
2023-05-23T03:55:00.632Z,85.0491
2023-05-23T03:56:08.777Z,85.5466
2023-05-23T03:57:16.851Z,86.0673
2023-05-23T03:58:24.757Z,85.7386
2023-05-23T03:59:32.965Z,85.2372
2023-05-23T04:00:41.356Z,84.8862
2023-05-23T04:01:49.078Z,84.8407
2023-05-23T04:02:57.198Z,84.7468
2023-05-23T04:04:05.377Z,84.7763
2023-05-23T04:05:13.482Z,84.9022
2023-05-23T04:06:21.309Z,84.2201
2023-05-23T04:07:29.409Z,83.7690
2023-05-23T04:08:37.515Z,83.7924
2023-05-23T04:09:45.681Z,83.5720
2023-05-23T04:10:53.564Z,83.2201
2023-05-23T04:12:01.608Z,83.7939
2023-05-23T04:13:09.700Z,84.4718
2023-05-23T04:14:18.027Z,85.2106
2023-05-23T04:15:25.942Z,85.0329
2023-05-23T04:16:33.949Z,84.7367
2023-05-23T04:17:41.917Z,85.2661
2023-05-23T04:18:50.106Z,85.4663
2023-05-23T04:19:58.091Z,85.5520
2023-05-23T04:21:06.090Z,85.5471
2023-05-23T04:22:14.107Z,85.3626
2023-05-23T04:23:22.215Z,85.8120
2023-05-23T04:24:30.254Z,85.8958
2023-05-23T04:25:38.396Z,86.0521
2023-05-23T04:26:46.598Z,86.3459
2023-05-23T04:27:54.418Z,85.9950
2023-05-23T04:29:02.581Z,85.8694
2023-05-23T04:30:10.517Z,85.6696
2023-05-23T04:31:18.683Z,85.3785
2023-05-23T04:32:26.554Z,85.1886
2023-05-23T04:33:35.140Z,85.0636
2023-05-23T04:34:42.762Z,84.6343
2023-05-23T04:35:50.965Z,85.0225
2023-05-23T04:36:58.971Z,85.0171
2023-05-23T04:38:06.960Z,85.1545
2023-05-23T04:39:14.938Z,84.6820
2023-05-23T04:40:23.114Z,84.1373
2023-05-23T04:41:31.287Z,84.2948
2023-05-23T04:42:39.228Z,84.6406
2023-05-23T04:43:47.286Z,84.6861
2023-05-23T04:44:55.216Z,85.5109
2023-05-23T04:46:03.414Z,85.6259
2023-05-23T04:47:11.563Z,85.6794
2023-05-23T04:48:19.717Z,85.6535
2023-05-23T04:49:27.578Z,85.5463
2023-05-23T04:50:35.496Z,85.4633
2023-05-23T04:51:43.836Z,84.3798
2023-05-23T04:52:51.761Z,84.0339
2023-05-23T04:53:59.792Z,84.0563
2023-05-23T04:55:07.908Z,83.6026
2023-05-23T04:56:15.827Z,83.5623
2023-05-23T04:57:23.996Z,83.6016
2023-05-23T04:58:31.918Z,82.7349
2023-05-23T04:59:40.151Z,82.8346
2023-05-23T05:00:48.224Z,83.3017
2023-05-23T05:01:56.297Z,83.8300
2023-05-23T05:03:04.313Z,84.1479
2023-05-23T05:04:12.402Z,83.0120
2023-05-23T05:05:20.408Z,82.5265
2023-05-23T05:06:28.557Z,82.9647
2023-05-23T05:07:36.634Z,83.0330
2023-05-23T05:08:44.583Z,82.9603
2023-05-23T05:09:52.709Z,83.0364
2023-05-23T05:11:00.612Z,83.6285
2023-05-23T05:12:08.830Z,84.2293
2023-05-23T05:13:16.882Z,83.2352
2023-05-23T05:14:24.874Z,82.9072
2023-05-23T05:15:32.929Z,82.8771
2023-05-23T05:16:40.912Z,82.1751
2023-05-23T05:17:49.960Z,81.5477
2023-05-23T05:18:57.009Z,81.4696
2023-05-23T05:20:05.197Z,81.8113
2023-05-23T05:21:13.365Z,82.1259
2023-05-23T05:22:21.300Z,81.5993
2023-05-23T05:23:29.421Z,81.3861
2023-05-23T05:24:37.259Z,81.6945
2023-05-23T05:25:45.436Z,81.4042
2023-05-23T05:26:53.500Z,81.5632
2023-05-23T05:28:01.478Z,81.8267
2023-05-23T05:29:09.968Z,81.9252
2023-05-23T05:30:17.551Z,81.6815
2023-05-23T05:31:25.816Z,80.8836
2023-05-23T05:32:33.890Z,81.0657
2023-05-23T05:33:41.842Z,81.0261
2023-05-23T05:34:49.980Z,81.0403
2023-05-23T05:35:57.946Z,81.2780
2023-05-23T05:37:06.045Z,82.1943
2023-05-23T05:38:14.534Z,81.7292
2023-05-23T05:39:22.357Z,81.3094
2023-05-23T05:40:30.188Z,80.8151
2023-05-23T05:41:38.279Z,80.0812
2023-05-23T05:42:46.381Z,80.2155
2023-05-23T05:43:54.384Z,79.9000
2023-05-23T05:45:02.318Z,80.4883
2023-05-23T05:46:10.535Z,80.6508
2023-05-23T05:47:18.722Z,81.6192
2023-05-23T05:48:26.722Z,81.7831
2023-05-23T05:49:34.679Z,81.7678
2023-05-23T05:50:42.727Z,82.2003
2023-05-23T05:51:50.827Z,82.7059
2023-05-23T05:52:58.887Z,82.2178
2023-05-23T05:54:06.918Z,82.5934
2023-05-23T05:55:15.016Z,82.9812
2023-05-23T05:56:23.145Z,82.5430
2023-05-23T05:57:31.304Z,82.6020
2023-05-23T05:58:39.146Z,82.0004
2023-05-23T05:59:47.049Z,82.1131
2023-05-23T06:00:55.236Z,82.5303
2023-05-23T06:02:03.172Z,82.7020
2023-05-23T06:03:11.513Z,82.6091
2023-05-23T06:04:19.476Z,82.9306
2023-05-23T06:05:27.481Z,82.5541
2023-05-23T06:06:35.732Z,81.6111
2023-05-23T06:07:43.572Z,82.1166
2023-05-23T06:08:51.637Z,83.1273
2023-05-23T06:09:59.808Z,82.4490
2023-05-23T06:11:07.870Z,81.1325
2023-05-23T06:12:15.791Z,81.1869
2023-05-23T06:13:23.941Z,80.6866
2023-05-23T06:14:32.010Z,81.0241
2023-05-23T06:15:39.983Z,81.5886
2023-05-23T06:16:48.131Z,80.4228
2023-05-23T06:17:56.259Z,79.0340
2023-05-23T06:19:04.248Z,78.5078
2023-05-23T06:20:12.248Z,77.6790
2023-05-23T06:21:20.297Z,77.8431
2023-05-23T06:22:28.169Z,77.3771
2023-05-23T06:23:36.449Z,78.2594
2023-05-23T06:24:44.460Z,77.6646
2023-05-23T06:25:52.628Z,77.5609
2023-05-23T06:27:00.628Z,78.0957
2023-05-23T06:28:08.631Z,78.6658
2023-05-23T06:29:16.725Z,78.3199
2023-05-23T06:30:24.761Z,78.9641
2023-05-23T06:31:32.818Z,79.0481
2023-05-23T06:32:40.953Z,79.8842
2023-05-23T06:33:48.828Z,78.8022
2023-05-23T06:34:57.026Z,78.2341
2023-05-23T06:36:05.048Z,77.7579
2023-05-23T06:37:13.103Z,78.2936
2023-05-23T06:38:21.189Z,78.2754
2023-05-23T06:39:29.278Z,78.2398
2023-05-23T06:40:37.266Z,77.5267
2023-05-23T06:41:45.351Z,78.9262
2023-05-23T06:42:53.428Z,77.4358
2023-05-23T06:44:01.467Z,77.0442
2023-05-23T06:45:09.534Z,77.1032
2023-05-23T06:46:17.490Z,77.6061
2023-05-23T06:47:25.867Z,77.6159
2023-05-23T06:48:33.571Z,76.9269
2023-05-23T06:49:41.873Z,76.3022
2023-05-23T06:50:49.823Z,77.3028
2023-05-23T06:51:57.913Z,77.3601
2023-05-23T06:53:06.047Z,76.5148
2023-05-23T06:54:13.892Z,77.6524
2023-05-23T06:55:22.086Z,77.0182
2023-05-23T06:56:30.133Z,75.8391
2023-05-23T06:57:38.170Z,77.1881
2023-05-23T06:58:47.249Z,76.1345
2023-05-23T06:59:54.201Z,77.0587
2023-05-23T07:01:02.397Z,77.7492
2023-05-23T07:02:10.435Z,77.1384
2023-05-23T07:03:18.522Z,78.6762
2023-05-23T07:04:26.560Z,79.1104
2023-05-23T07:05:34.708Z,78.9267
2023-05-23T07:06:42.847Z,78.5406
2023-05-23T07:07:50.740Z,79.6790
2023-05-23T07:08:58.761Z,79.0612
2023-05-23T07:10:06.876Z,78.4523
2023-05-23T07:11:15.018Z,77.4766
2023-05-23T07:12:23.000Z,77.1007
2023-05-23T07:13:31.075Z,77.0570
2023-05-23T07:14:39.248Z,77.6062
2023-05-23T07:15:47.329Z,77.7767
2023-05-23T07:16:55.310Z,75.8675
2023-05-23T07:18:03.289Z,75.8701
2023-05-23T07:19:11.401Z,77.6900
2023-05-23T07:20:19.401Z,77.0764
2023-05-23T07:21:27.512Z,76.0406
2023-05-23T07:22:35.381Z,75.2371
2023-05-23T07:23:43.456Z,75.2650
2023-05-23T07:24:51.629Z,74.4472
2023-05-23T07:26:02.963Z,75.7755
2023-05-23T07:27:12.631Z,76.8855
2023-05-23T07:28:20.675Z,75.1256
2023-05-23T07:29:28.767Z,74.8533
2023-05-23T07:30:36.873Z,75.5526
2023-05-23T07:31:44.949Z,75.7876
2023-05-23T07:32:53.077Z,74.1871
2023-05-23T07:34:01.018Z,73.6583
2023-05-23T07:35:09.041Z,73.6387
2023-05-23T07:36:17.141Z,73.5342
2023-05-23T07:37:25.202Z,73.4280
2023-05-23T07:38:33.101Z,73.0920
2023-05-23T07:39:41.440Z,73.8133
2023-05-23T07:40:58.844Z,72.9210
2023-05-23T07:42:02.470Z,74.4922
2023-05-23T07:43:10.335Z,74.1294
2023-05-23T07:44:18.388Z,74.1734
2023-05-23T07:45:26.429Z,75.5325
2023-05-23T07:46:34.389Z,74.2314
2023-05-23T07:47:42.828Z,74.8201
2023-05-23T07:48:50.635Z,74.9743
2023-05-23T07:49:58.646Z,75.7359
2023-05-23T07:51:06.816Z,75.3369
2023-05-23T07:52:14.919Z,76.1504
2023-05-23T07:53:22.930Z,76.0714
2023-05-23T07:54:30.938Z,75.9124
2023-05-23T07:55:38.989Z,76.9739
2023-05-23T07:56:47.175Z,75.2513
2023-05-23T07:57:55.103Z,75.2010
2023-05-23T07:59:03.185Z,75.4279
2023-05-23T08:00:11.306Z,75.4906
2023-05-23T08:01:19.325Z,75.5394
2023-05-23T08:02:27.420Z,76.2603
2023-05-23T08:03:35.374Z,76.2413
2023-05-23T08:04:43.492Z,77.6220
2023-05-23T08:05:51.542Z,78.3572
2023-05-23T08:07:05.485Z,77.7638
2023-05-23T08:08:12.546Z,79.0900
2023-05-23T08:09:20.754Z,78.9945
2023-05-23T08:10:28.479Z,77.6019
2023-05-23T08:11:36.798Z,77.6927
2023-05-23T08:12:44.713Z,77.1501
2023-05-23T08:13:52.976Z,78.4654
2023-05-23T08:15:00.863Z,77.2899
2023-05-23T08:16:08.944Z,76.4752
2023-05-23T08:17:17.050Z,77.0131
2023-05-23T08:18:25.045Z,77.6849
2023-05-23T08:19:33.290Z,76.9363
2023-05-23T08:20:41.390Z,77.8280
2023-05-23T08:21:49.070Z,77.5201
2023-05-23T08:22:57.534Z,78.6162
2023-05-23T08:24:05.343Z,80.0741
2023-05-23T08:25:13.375Z,79.1121
2023-05-23T08:26:21.490Z,77.3635
2023-05-23T08:27:29.379Z,77.7582
2023-05-23T08:28:37.581Z,77.0063
2023-05-23T08:29:45.668Z,74.4891
2023-05-23T08:30:53.714Z,76.2851
2023-05-23T08:32:01.830Z,75.3721
2023-05-23T08:33:09.691Z,73.6237
2023-05-23T08:34:17.893Z,75.1719
2023-05-23T08:35:25.939Z,75.8750
2023-05-23T08:36:33.986Z,75.1419
2023-05-23T08:37:42.238Z,74.1140
2023-05-23T08:38:50.010Z,74.6186
2023-05-23T08:39:58.170Z,73.8736
2023-05-23T08:41:06.196Z,70.6044
2023-05-23T08:42:14.614Z,69.7634
2023-05-23T08:43:22.390Z,68.6884
2023-05-23T08:44:30.476Z,70.8481
2023-05-23T08:45:38.509Z,73.0374
2023-05-23T08:46:46.704Z,71.5186
2023-05-23T08:47:54.750Z,69.6809
2023-05-23T08:49:02.785Z,70.9299
2023-05-23T08:50:10.987Z,72.1991
2023-05-23T08:51:18.907Z,70.5373
2023-05-23T08:52:27.009Z,69.8084
2023-05-23T08:53:34.824Z,69.8918
2023-05-23T08:54:43.040Z,69.0494
2023-05-23T08:55:51.113Z,67.8610
2023-05-23T08:56:59.008Z,66.3232
2023-05-23T08:58:07.215Z,67.7232
2023-05-23T08:59:15.140Z,68.4458
2023-05-23T09:00:23.435Z,67.0311
2023-05-23T09:01:31.642Z,66.9690
2023-05-23T09:02:39.494Z,66.0821
2023-05-23T09:03:47.486Z,65.2791
2023-05-23T09:04:55.431Z,64.9438
2023-05-23T09:06:03.733Z,66.2873
2023-05-23T09:07:11.929Z,68.7041
2023-05-23T09:08:19.752Z,67.7013
2023-05-23T09:09:27.794Z,67.8864
2023-05-23T09:10:35.924Z,66.1753
2023-05-23T09:11:43.936Z,67.1448
2023-05-23T09:12:51.975Z,68.2412
2023-05-23T09:13:59.934Z,64.8959
2023-05-23T09:15:08.107Z,65.2974
2023-05-23T09:16:16.052Z,68.1637
2023-05-23T09:17:24.383Z,68.6508
2023-05-23T09:18:32.332Z,66.7972
2023-05-23T09:19:40.413Z,67.3050
2023-05-23T09:20:48.429Z,67.2422
2023-05-23T09:21:56.487Z,67.5037
2023-05-23T09:23:04.552Z,67.8187
2023-05-23T09:24:12.847Z,67.9080
2023-05-23T09:25:20.507Z,65.8977
2023-05-23T09:26:28.750Z,67.7225
2023-05-23T09:27:36.770Z,64.4967
2023-05-23T09:28:44.756Z,63.4361
2023-05-23T09:29:52.902Z,60.7174
2023-05-23T09:31:01.068Z,60.3863
2023-05-23T09:32:09.300Z,62.7656
2023-05-23T09:33:17.183Z,64.8069
2023-05-23T09:34:25.142Z,65.6301
2023-05-23T09:35:33.177Z,66.5523
2023-05-23T09:36:41.157Z,66.2775
2023-05-23T09:37:49.333Z,66.3474
2023-05-23T09:38:57.415Z,65.9829
2023-05-23T09:40:05.564Z,67.7811
2023-05-23T09:41:13.496Z,66.4910
2023-05-23T09:42:21.437Z,63.8651
2023-05-23T09:43:29.747Z,63.3145
2023-05-23T09:44:37.698Z,61.2277
2023-05-23T09:45:45.796Z,60.4174
2023-05-23T09:46:53.963Z,60.3596
2023-05-23T09:48:01.895Z,63.7755
2023-05-23T09:49:10.088Z,63.4424
2023-05-23T09:50:18.048Z,64.3270
2023-05-23T09:51:26.046Z,60.8283
2023-05-23T09:52:34.076Z,61.8993
2023-05-23T09:53:42.273Z,61.9189
2023-05-23T09:54:50.096Z,59.9908
2023-05-23T09:55:58.259Z,59.5000
2023-05-23T09:57:07.181Z,61.6094
2023-05-23T09:58:14.427Z,58.9261
2023-05-23T09:59:22.517Z,55.8973
2023-05-23T10:00:30.391Z,56.0806
2023-05-23T10:01:38.812Z,55.6354
2023-05-23T10:02:46.607Z,56.7989
2023-05-23T10:03:55.567Z,55.7656
2023-05-23T10:05:02.807Z,53.3580
2023-05-23T10:06:10.701Z,47.2008
2023-05-23T10:07:18.908Z,48.1031
2023-05-23T10:08:26.807Z,47.6367
2023-05-23T10:09:35.264Z,48.8324
2023-05-23T10:10:43.245Z,48.8325
2023-05-23T10:11:51.147Z,46.3267
2023-05-23T10:12:59.254Z,47.8639
2023-05-23T10:14:07.237Z,50.7270
2023-05-23T10:15:15.397Z,44.5621
2023-05-23T10:16:23.424Z,42.3672
2023-05-23T10:17:31.488Z,41.4755
2023-05-23T10:18:39.729Z,43.3169
2023-05-23T10:19:47.601Z,42.7762
2023-05-23T10:20:55.806Z,42.6067
2023-05-23T10:22:03.752Z,45.8196
2023-05-23T10:23:11.907Z,45.5296
2023-05-23T10:24:19.904Z,46.6152
2023-05-23T10:25:27.932Z,48.4087
2023-05-23T10:26:35.909Z,46.3295
2023-05-23T10:27:44.311Z,45.4979
2023-05-23T10:28:52.235Z,42.1266
2023-05-23T10:30:00.221Z,44.3845
2023-05-23T10:31:08.325Z,43.1279
2023-05-23T10:32:16.404Z,39.3564
2023-05-23T10:33:24.379Z,38.8074
2023-05-23T10:34:32.355Z,41.1609
2023-05-23T10:35:40.578Z,41.7672
2023-05-23T10:36:48.631Z,43.2979
2023-05-23T10:37:56.519Z,44.3392
2023-05-23T10:39:04.716Z,43.0375
2023-05-23T10:40:12.659Z,38.8608
2023-05-23T10:41:20.833Z,39.4961
2023-05-23T10:42:28.971Z,38.4956
2023-05-23T10:43:36.864Z,39.4957
2023-05-23T10:44:45.132Z,43.7177
2023-05-23T10:45:53.002Z,46.1546
2023-05-23T10:47:01.273Z,45.7413
2023-05-23T10:48:09.283Z,44.0610
2023-05-23T10:49:17.300Z,49.6071
2023-05-23T10:50:25.371Z,49.2365
2023-05-23T10:51:33.454Z,52.9363
2023-05-23T10:52:41.554Z,56.0866
2023-05-23T10:53:49.579Z,55.9809
2023-05-23T10:54:57.676Z,52.3300
2023-05-23T10:56:05.747Z,51.2683
2023-05-23T10:57:13.760Z,51.4535
2023-05-23T10:58:21.762Z,54.9620
2023-05-23T10:59:29.964Z,57.7893
2023-05-23T11:00:37.987Z,56.2654
2023-05-23T11:01:46.006Z,54.6795
2023-05-23T11:02:54.155Z,53.7465
2023-05-23T11:04:02.306Z,52.8800
2023-05-23T11:05:10.194Z,53.4063
2023-05-23T11:06:18.254Z,52.7506
2023-05-23T11:07:26.499Z,50.3771
2023-05-23T11:08:46.715Z,49.7652
2023-05-23T11:09:47.277Z,50.8566
2023-05-23T11:10:55.330Z,52.2185
2023-05-23T11:12:03.439Z,50.7798
2023-05-23T11:13:11.634Z,46.9406
2023-05-23T11:14:19.845Z,46.1951
2023-05-23T11:15:27.584Z,44.6733
2023-05-23T11:16:35.669Z,44.2303
2023-05-23T11:17:43.917Z,44.7411
2023-05-23T11:18:51.747Z,47.5977
2023-05-23T11:19:59.889Z,47.8110
2023-05-23T11:21:07.936Z,49.3772
2023-05-23T11:22:16.061Z,50.5704
2023-05-23T11:23:24.083Z,53.5251
2023-05-23T11:24:32.205Z,52.0004
2023-05-23T11:25:40.290Z,48.2411
2023-05-23T11:26:48.179Z,49.2664
2023-05-23T11:27:56.248Z,47.3075
2023-05-23T11:29:04.471Z,46.3286
2023-05-23T11:30:12.716Z,46.2387
2023-05-23T11:31:20.619Z,46.6233
2023-05-23T11:32:28.787Z,51.1235
2023-05-23T11:33:36.699Z,54.0909
2023-05-23T11:34:44.815Z,49.7317
2023-05-23T11:35:52.698Z,55.1628
2023-05-23T11:37:00.844Z,58.0610
2023-05-23T11:38:09.059Z,58.7947
2023-05-23T11:39:17.000Z,58.4572
2023-05-23T11:40:25.120Z,58.9483
2023-05-23T11:41:33.170Z,59.6581
2023-05-23T11:42:41.217Z,59.7872
2023-05-23T11:43:49.246Z,59.7998
2023-05-23T11:44:57.463Z,60.8268
2023-05-23T11:46:05.467Z,60.5995
2023-05-23T11:47:13.448Z,57.8524
2023-05-23T11:48:21.512Z,61.4201
2023-05-23T11:49:29.717Z,61.7702
2023-05-23T11:50:37.559Z,63.3553
2023-05-23T11:51:45.740Z,62.9478
2023-05-23T11:52:53.809Z,61.3469
2023-05-23T11:54:01.926Z,60.3028
2023-05-23T11:55:09.801Z,61.3571
2023-05-23T11:56:18.101Z,61.4595
2023-05-23T11:57:26.140Z,63.9695
2023-05-23T11:58:34.149Z,64.0943
2023-05-23T11:59:42.261Z,63.5853
2023-05-23T12:00:50.798Z,64.0954
2023-05-23T12:01:58.341Z,62.5862
2023-05-23T12:03:06.483Z,64.7244
2023-05-23T12:04:14.514Z,66.2167
2023-05-23T12:05:22.618Z,65.8122
2023-05-23T12:06:30.606Z,66.7413
2023-05-23T12:07:38.651Z,66.7540
2023-05-23T12:08:46.702Z,65.0666
2023-05-23T12:09:54.800Z,65.2732
2023-05-23T12:11:02.904Z,66.6157
2023-05-23T12:12:11.039Z,67.4115
2023-05-23T12:13:18.935Z,67.0515
2023-05-23T12:14:27.207Z,65.8989
2023-05-23T12:15:35.080Z,64.0292
2023-05-23T12:16:43.274Z,65.3294
2023-05-23T12:17:51.234Z,64.3349
2023-05-23T12:18:59.229Z,66.0174
2023-05-23T12:20:07.352Z,67.4502
2023-05-23T12:21:15.384Z,68.6651
2023-05-23T12:22:23.358Z,70.6987
2023-05-23T12:23:34.503Z,71.8102
2023-05-23T12:24:44.304Z,72.8630
2023-05-23T12:25:52.562Z,74.2690
2023-05-23T12:27:00.556Z,75.3975
2023-05-23T12:28:08.601Z,75.4877
2023-05-23T12:29:16.559Z,74.8599
2023-05-23T12:30:24.680Z,75.8387
2023-05-23T12:31:32.986Z,76.6695
2023-05-23T12:32:41.191Z,76.5501
2023-05-23T12:33:49.792Z,76.9068
2023-05-23T12:34:57.122Z,78.2312
2023-05-23T12:36:05.299Z,78.3881
2023-05-23T12:37:19.428Z,78.0749
2023-05-23T12:38:26.089Z,79.7012
2023-05-23T12:39:34.003Z,80.1952
2023-05-23T12:40:42.160Z,79.6594
2023-05-23T12:41:50.277Z,78.1740
2023-05-23T12:42:58.165Z,78.9257
2023-05-23T12:44:06.358Z,78.7552
2023-05-23T12:45:14.639Z,78.5636
2023-05-23T12:46:22.745Z,79.3434
2023-05-23T12:47:30.671Z,79.1390
2023-05-23T12:48:38.565Z,77.7811
2023-05-23T12:49:46.668Z,74.8766
2023-05-23T12:50:54.644Z,71.9499
2023-05-23T12:52:02.778Z,72.0430
2023-05-23T12:53:10.958Z,68.3980
2023-05-23T12:54:19.089Z,68.9381
2023-05-23T12:55:27.029Z,66.4445
2023-05-23T12:56:35.048Z,67.7742
2023-05-23T12:57:43.193Z,67.6181
2023-05-23T12:58:51.321Z,66.6145
2023-05-23T12:59:59.337Z,67.5189
2023-05-23T13:01:07.430Z,67.6236
2023-05-23T13:02:15.506Z,68.0654
2023-05-23T13:03:23.760Z,69.3540
2023-05-23T13:04:32.615Z,69.8996
2023-05-23T13:05:40.235Z,68.4249
2023-05-23T13:06:47.732Z,69.0877
2023-05-23T13:07:55.766Z,69.2134
2023-05-23T13:09:03.707Z,68.6592
2023-05-23T13:10:12.028Z,68.1528
2023-05-23T13:11:19.890Z,66.8067
2023-05-23T13:12:28.106Z,66.1658
2023-05-23T13:13:36.237Z,66.8765
2023-05-23T13:14:44.255Z,68.8033
2023-05-23T13:15:52.323Z,66.7727
2023-05-23T13:17:00.745Z,66.1374
2023-05-23T13:18:08.443Z,66.0429
2023-05-23T13:19:16.482Z,69.4953
2023-05-23T13:20:24.594Z,68.9141
2023-05-23T13:21:32.589Z,70.8306
2023-05-23T13:22:40.508Z,71.7577
2023-05-23T13:23:48.845Z,69.8859
2023-05-23T13:24:56.811Z,70.8223
2023-05-23T13:26:04.875Z,70.0259
2023-05-23T13:27:12.999Z,71.9844
2023-05-23T13:28:20.961Z,71.3155
2023-05-23T13:29:29.014Z,69.5784
2023-05-23T13:30:36.966Z,69.4125
2023-05-23T13:31:45.324Z,67.2314
2023-05-23T13:32:53.300Z,66.3041
2023-05-23T13:34:01.333Z,66.7149
2023-05-23T13:35:09.345Z,66.3339
2023-05-23T13:36:17.408Z,67.6582
2023-05-23T13:37:25.505Z,69.4026
2023-05-23T13:38:33.676Z,70.1106
2023-05-23T13:39:41.729Z,68.9553
2023-05-23T13:40:51.362Z,71.9283
2023-05-23T13:41:57.767Z,70.8915
2023-05-23T13:43:05.772Z,71.2981